Terminal Aerodrome Forecast
Issued by NWS Raleigh/Durham, NC

Current Version | Previous Version | Text Only | Print | Product List | Glossary On
Versions: 1 2 3 4 5 6 7 8 9 10 11 12 13 14 15 16 17 18 19
000 FTUS42 KRAH 281739 TAFGSO TAF KGSO 281739Z 2818/2918 17004KT P6SM BKN020 FM281900 16005KT P6SM VCTS OVC050CB TEMPO 2820/2823 5SM -TSRA BKN030CB FM290200 13005KT 5SM -SHRA SCT020 BKN040 FM290700 12002KT 4SM BR BKN003 FM291500 14004KT P6SM SCT050=

USA.gov is the U.S. government's official web portal to all federal, state and local government web resources and services.